WRC7701 LYBE-LKTB
Flight info
| Callsign | WRC7701 |
|---|---|
| Flight time | 1h 0m |
| Altitude | 34000 |
| Route | N0450F340 TADAM DCT BABIT DCT KUVEX DCT REKLU DCT LEDVA |
| Aircraft | A319/M-G/L |
Departure
| Time | 2026-04-20 16:05 |
|---|---|
| Airport | Belgrade Nikola Tesla Airport (LYBE) |
Arrival
| Time | 2026-04-20 17:06 |
|---|---|
| Airport | Brno-Tuřany Airport (LKTB) |
| Time | Latitude | Longitude | Altitude | Speed | Heading |
|---|---|---|---|---|---|
| 2026-04-20 15:46 | 44.82019 | 20.29337 | 344 ft | 0 kts | 302° |
| 2026-04-20 15:58 | 44.82015 | 20.29347 | 344 ft | 2 kts | 302° |
| 2026-04-20 15:58 | 44.82007 | 20.29364 | 344 ft | 2 kts | 301° |
| 2026-04-20 15:58 | 44.81999 | 20.29382 | 344 ft | 2 kts | 302° |
| 2026-04-20 15:58 | 44.81991 | 20.29400 | 344 ft | 2 kts | 301° |
| 2026-04-20 15:59 | 44.81980 | 20.29414 | 344 ft | 2 kts | 348° |
| 2026-04-20 15:59 | 44.81967 | 20.29412 | 344 ft | 0 kts | 27° |
| 2026-04-20 15:59 | 44.81962 | 20.29407 | 344 ft | 1 kts | 33° |
| 2026-04-20 15:59 | 44.81960 | 20.29406 | 344 ft | 0 kts | 33° |
| 2026-04-20 16:00 | 44.81964 | 20.29409 | 344 ft | 1 kts | 33° |
| 2026-04-20 16:01 | 44.82005 | 20.29446 | 344 ft | 9 kts | 31° |
| 2026-04-20 16:01 | 44.82065 | 20.29498 | 344 ft | 11 kts | 31° |
| 2026-04-20 16:01 | 44.82111 | 20.29583 | 344 ft | 12 kts | 107° |
| 2026-04-20 16:01 | 44.82067 | 20.29701 | 344 ft | 14 kts | 118° |
| 2026-04-20 16:02 | 44.82005 | 20.29844 | 344 ft | 21 kts | 122° |
| 2026-04-20 16:02 | 44.81912 | 20.30052 | 344 ft | 28 kts | 120° |
| 2026-04-20 16:02 | 44.81801 | 20.30307 | 344 ft | 30 kts | 122° |
| 2026-04-20 16:02 | 44.81689 | 20.30558 | 344 ft | 30 kts | 122° |
| 2026-04-20 16:03 | 44.81580 | 20.30805 | 344 ft | 29 kts | 121° |
| 2026-04-20 16:03 | 44.81470 | 20.31049 | 344 ft | 29 kts | 121° |
| 2026-04-20 16:03 | 44.81370 | 20.31280 | 344 ft | 28 kts | 122° |
| 2026-04-20 16:03 | 44.81263 | 20.31518 | 344 ft | 28 kts | 123° |
| 2026-04-20 16:04 | 44.81160 | 20.31748 | 344 ft | 27 kts | 123° |
| 2026-04-20 16:04 | 44.81058 | 20.31978 | 344 ft | 27 kts | 122° |
| 2026-04-20 16:04 | 44.81002 | 20.32217 | 344 ft | 26 kts | 62° |
| 2026-04-20 16:04 | 44.81165 | 20.32300 | 344 ft | 26 kts | 349° |
| 2026-04-20 16:05 | 44.81379 | 20.31965 | 344 ft | 92 kts | 302° |
| 2026-04-20 16:05 | 44.81851 | 20.30906 | 778 ft | 143 kts | 302° |
| 2026-04-20 16:05 | 44.82297 | 20.29674 | 1782 ft | 152 kts | 283° |
| 2026-04-20 16:05 | 44.82055 | 20.28211 | 2785 ft | 170 kts | 236° |
| 2026-04-20 16:06 | 44.81260 | 20.26959 | 3759 ft | 186 kts | 225° |
| 2026-04-20 16:06 | 44.80282 | 20.25658 | 4703 ft | 205 kts | 226° |
| 2026-04-20 16:06 | 44.79222 | 20.24171 | 5419 ft | 235 kts | 227° |
| 2026-04-20 16:06 | 44.78061 | 20.22443 | 5860 ft | 247 kts | 229° |
| 2026-04-20 16:07 | 44.76883 | 20.20622 | 6368 ft | 251 kts | 230° |
| 2026-04-20 16:07 | 44.75668 | 20.18708 | 6882 ft | 274 kts | 230° |
| 2026-04-20 16:07 | 44.74325 | 20.16570 | 7393 ft | 307 kts | 230° |
| 2026-04-20 16:07 | 44.72857 | 20.14230 | 7892 ft | 337 kts | 230° |
| 2026-04-20 16:08 | 44.71258 | 20.11685 | 8392 ft | 363 kts | 230° |
| 2026-04-20 16:08 | 44.69540 | 20.08937 | 8895 ft | 378 kts | 232° |
| 2026-04-20 16:08 | 44.68253 | 20.05659 | 9602 ft | 386 kts | 255° |
| 2026-04-20 16:08 | 44.68028 | 20.01976 | 10901 ft | 379 kts | 276° |
| 2026-04-20 16:09 | 44.68679 | 19.98494 | 12333 ft | 368 kts | 294° |
| 2026-04-20 16:09 | 44.70074 | 19.95554 | 13779 ft | 361 kts | 312° |
| 2026-04-20 16:09 | 44.71998 | 19.93454 | 15192 ft | 356 kts | 328° |
| 2026-04-20 16:09 | 44.74160 | 19.91848 | 16635 ft | 347 kts | 329° |
| 2026-04-20 16:10 | 44.76241 | 19.90355 | 18015 ft | 338 kts | 329° |
| 2026-04-20 16:10 | 44.78321 | 19.88861 | 19406 ft | 328 kts | 328° |
| 2026-04-20 16:10 | 44.80277 | 19.87447 | 20719 ft | 319 kts | 328° |
| 2026-04-20 16:10 | 44.82245 | 19.86014 | 21813 ft | 317 kts | 327° |
| 2026-04-20 16:11 | 44.84204 | 19.84579 | 22688 ft | 321 kts | 327° |
| 2026-04-20 16:11 | 44.86192 | 19.83118 | 23525 ft | 325 kts | 327° |
| 2026-04-20 16:11 | 44.88227 | 19.81622 | 24346 ft | 329 kts | 327° |
| 2026-04-20 16:11 | 44.90259 | 19.80129 | 25181 ft | 331 kts | 327° |
| 2026-04-20 16:12 | 44.92331 | 19.78607 | 26041 ft | 333 kts | 327° |
| 2026-04-20 16:12 | 44.94396 | 19.77089 | 26886 ft | 333 kts | 326° |
| 2026-04-20 16:12 | 44.96467 | 19.75566 | 27714 ft | 333 kts | 326° |
| 2026-04-20 16:12 | 44.98539 | 19.74040 | 28511 ft | 333 kts | 326° |
| 2026-04-20 16:13 | 45.00575 | 19.72538 | 29261 ft | 334 kts | 326° |
| 2026-04-20 16:13 | 45.02636 | 19.71019 | 29996 ft | 334 kts | 326° |
| 2026-04-20 16:13 | 45.04675 | 19.69511 | 30758 ft | 332 kts | 326° |
| 2026-04-20 16:13 | 45.06714 | 19.68000 | 31391 ft | 334 kts | 326° |
| 2026-04-20 16:14 | 45.08797 | 19.66454 | 31921 ft | 338 kts | 326° |
| 2026-04-20 16:14 | 45.10786 | 19.64981 | 32401 ft | 342 kts | 326° |
| 2026-04-20 16:14 | 45.12917 | 19.63412 | 32911 ft | 345 kts | 326° |
| 2026-04-20 16:14 | 45.15042 | 19.61847 | 33407 ft | 349 kts | 327° |
| 2026-04-20 16:15 | 45.17213 | 19.60241 | 33831 ft | 353 kts | 327° |
| 2026-04-20 16:15 | 45.19395 | 19.58623 | 33969 ft | 356 kts | 327° |
| 2026-04-20 16:15 | 45.21623 | 19.56966 | 33976 ft | 371 kts | 327° |
| 2026-04-20 16:15 | 45.23951 | 19.55202 | 33981 ft | 383 kts | 326° |
| 2026-04-20 16:16 | 45.26272 | 19.53260 | 33983 ft | 394 kts | 324° |
| 2026-04-20 16:16 | 45.28606 | 19.51204 | 33983 ft | 400 kts | 323° |
| 2026-04-20 16:16 | 45.33377 | 19.46963 | 33983 ft | 403 kts | 323° |
| 2026-04-20 16:17 | 45.38129 | 19.42727 | 33983 ft | 402 kts | 323° |
| 2026-04-20 16:17 | 45.42839 | 19.38515 | 33983 ft | 402 kts | 323° |
| 2026-04-20 16:18 | 45.47500 | 19.34336 | 33985 ft | 402 kts | 323° |
| 2026-04-20 16:18 | 45.52210 | 19.30081 | 33983 ft | 401 kts | 323° |
| 2026-04-20 16:19 | 45.56887 | 19.25858 | 33983 ft | 401 kts | 323° |
| 2026-04-20 16:19 | 45.61639 | 19.21568 | 33983 ft | 401 kts | 323° |
| 2026-04-20 16:20 | 45.66330 | 19.17329 | 33983 ft | 400 kts | 323° |
| 2026-04-20 16:20 | 45.70742 | 19.13335 | 33983 ft | 400 kts | 323° |
| 2026-04-20 16:21 | 45.75691 | 19.08848 | 33983 ft | 400 kts | 323° |
| 2026-04-20 16:21 | 45.80396 | 19.04574 | 33983 ft | 399 kts | 323° |
| 2026-04-20 16:22 | 45.85102 | 19.00290 | 33983 ft | 399 kts | 323° |
| 2026-04-20 16:22 | 45.89760 | 18.96040 | 33983 ft | 399 kts | 323° |
| 2026-04-20 16:23 | 45.94579 | 18.91951 | 33983 ft | 401 kts | 326° |
| 2026-04-20 16:23 | 45.99544 | 18.88294 | 33983 ft | 402 kts | 327° |
| 2026-04-20 16:24 | 46.04570 | 18.84642 | 33982 ft | 405 kts | 327° |
| 2026-04-20 16:24 | 46.09599 | 18.80983 | 33982 ft | 405 kts | 327° |
| 2026-04-20 16:25 | 46.13740 | 18.77977 | 33983 ft | 405 kts | 328° |
| 2026-04-20 16:25 | 46.18339 | 18.74637 | 33983 ft | 405 kts | 327° |
| 2026-04-20 16:26 | 46.23393 | 18.70947 | 33983 ft | 405 kts | 327° |
| 2026-04-20 16:26 | 46.28429 | 18.67257 | 33983 ft | 405 kts | 327° |
| 2026-04-20 16:27 | 46.33480 | 18.63546 | 33983 ft | 405 kts | 327° |
| 2026-04-20 16:27 | 46.38510 | 18.59840 | 33983 ft | 405 kts | 327° |
| 2026-04-20 16:28 | 46.43541 | 18.56126 | 33983 ft | 405 kts | 327° |
| 2026-04-20 16:28 | 46.48568 | 18.52406 | 33982 ft | 406 kts | 327° |
| 2026-04-20 16:29 | 46.53609 | 18.48670 | 33983 ft | 406 kts | 327° |
| 2026-04-20 16:29 | 46.58637 | 18.44935 | 33982 ft | 407 kts | 327° |
| 2026-04-20 16:30 | 46.63687 | 18.41175 | 33982 ft | 407 kts | 327° |
| 2026-04-20 16:30 | 46.68736 | 18.37407 | 33982 ft | 408 kts | 328° |
| 2026-04-20 16:31 | 46.73706 | 18.33686 | 33984 ft | 409 kts | 327° |
| 2026-04-20 16:31 | 46.78478 | 18.30088 | 33982 ft | 410 kts | 327° |
| 2026-04-20 16:32 | 46.83137 | 18.26575 | 33982 ft | 411 kts | 327° |
| 2026-04-20 16:32 | 46.88256 | 18.22719 | 33982 ft | 413 kts | 327° |
| 2026-04-20 16:33 | 46.93434 | 18.18812 | 33982 ft | 414 kts | 327° |
| 2026-04-20 16:33 | 46.98589 | 18.14917 | 33982 ft | 416 kts | 327° |
| 2026-04-20 16:34 | 47.03727 | 18.11027 | 33982 ft | 417 kts | 327° |
| 2026-04-20 16:34 | 47.08910 | 18.07094 | 33982 ft | 419 kts | 327° |
| 2026-04-20 16:35 | 47.13863 | 18.03342 | 33982 ft | 421 kts | 327° |
| 2026-04-20 16:35 | 47.18678 | 17.99694 | 33982 ft | 422 kts | 327° |
| 2026-04-20 16:36 | 47.23906 | 17.95711 | 33982 ft | 423 kts | 327° |
| 2026-04-20 16:36 | 47.29127 | 17.91714 | 33982 ft | 424 kts | 327° |
| 2026-04-20 16:37 | 47.34398 | 17.87671 | 33982 ft | 426 kts | 327° |
| 2026-04-20 16:37 | 47.39634 | 17.83645 | 33982 ft | 427 kts | 327° |
| 2026-04-20 16:38 | 47.44903 | 17.79584 | 33982 ft | 428 kts | 327° |
| 2026-04-20 16:38 | 47.50182 | 17.75508 | 33982 ft | 429 kts | 327° |
| 2026-04-20 16:39 | 47.55498 | 17.71394 | 33983 ft | 430 kts | 327° |
| 2026-04-20 16:39 | 47.60816 | 17.67267 | 33982 ft | 430 kts | 327° |
| 2026-04-20 16:40 | 47.66114 | 17.63150 | 33988 ft | 431 kts | 327° |
| 2026-04-20 16:40 | 47.71420 | 17.59016 | 33984 ft | 431 kts | 327° |
| 2026-04-20 16:41 | 47.76762 | 17.54844 | 33983 ft | 431 kts | 327° |
| 2026-04-20 16:41 | 47.82102 | 17.50663 | 33983 ft | 431 kts | 327° |
| 2026-04-20 16:42 | 47.87411 | 17.46497 | 33982 ft | 431 kts | 327° |
| 2026-04-20 16:42 | 47.92698 | 17.42398 | 33981 ft | 423 kts | 329° |
| 2026-04-20 16:43 | 47.95380 | 17.40445 | 33869 ft | 423 kts | 329° |
| 2026-04-20 16:43 | 47.98015 | 17.38545 | 33617 ft | 420 kts | 329° |
| 2026-04-20 16:43 | 48.00661 | 17.36636 | 33364 ft | 418 kts | 329° |
| 2026-04-20 16:43 | 48.03245 | 17.34754 | 33113 ft | 420 kts | 329° |
| 2026-04-20 16:44 | 48.05732 | 17.32934 | 32683 ft | 420 kts | 329° |
| 2026-04-20 16:44 | 48.08274 | 17.31071 | 32001 ft | 420 kts | 329° |
| 2026-04-20 16:44 | 48.10796 | 17.29220 | 31207 ft | 420 kts | 329° |
| 2026-04-20 16:44 | 48.13042 | 17.27581 | 30445 ft | 420 kts | 329° |
| 2026-04-20 16:45 | 48.15663 | 17.25670 | 29524 ft | 421 kts | 329° |
| 2026-04-20 16:45 | 48.18287 | 17.23754 | 28709 ft | 418 kts | 329° |
| 2026-04-20 16:45 | 48.20876 | 17.21860 | 28104 ft | 411 kts | 329° |
| 2026-04-20 16:45 | 48.23436 | 17.19984 | 27477 ft | 405 kts | 329° |
| 2026-04-20 16:46 | 48.25937 | 17.18148 | 26846 ft | 400 kts | 330° |
| 2026-04-20 16:46 | 48.28419 | 17.16321 | 26210 ft | 395 kts | 330° |
| 2026-04-20 16:46 | 48.30911 | 17.14485 | 25561 ft | 391 kts | 330° |
| 2026-04-20 16:46 | 48.33346 | 17.12688 | 24925 ft | 387 kts | 330° |
| 2026-04-20 16:47 | 48.35734 | 17.10924 | 24292 ft | 384 kts | 330° |
| 2026-04-20 16:47 | 48.38124 | 17.09156 | 23641 ft | 382 kts | 330° |
| 2026-04-20 16:47 | 48.40522 | 17.07382 | 22996 ft | 379 kts | 330° |
| 2026-04-20 16:47 | 48.42860 | 17.05652 | 22383 ft | 376 kts | 330° |
| 2026-04-20 16:48 | 48.45215 | 17.03907 | 21778 ft | 373 kts | 330° |
| 2026-04-20 16:48 | 48.47505 | 17.02208 | 21191 ft | 370 kts | 330° |
| 2026-04-20 16:48 | 48.49807 | 17.00496 | 20604 ft | 367 kts | 330° |
| 2026-04-20 16:48 | 48.52076 | 16.98808 | 20038 ft | 363 kts | 330° |
| 2026-04-20 16:49 | 48.54334 | 16.97126 | 19477 ft | 360 kts | 330° |
| 2026-04-20 16:49 | 48.56552 | 16.95460 | 18912 ft | 357 kts | 329° |
| 2026-04-20 16:49 | 48.58722 | 16.93652 | 18334 ft | 353 kts | 326° |
| 2026-04-20 16:49 | 48.60801 | 16.91667 | 17750 ft | 350 kts | 323° |
| 2026-04-20 16:50 | 48.62789 | 16.89608 | 17170 ft | 348 kts | 322° |
| 2026-04-20 16:50 | 48.64771 | 16.87517 | 16594 ft | 346 kts | 322° |
| 2026-04-20 16:50 | 48.66755 | 16.85422 | 16016 ft | 344 kts | 322° |
| 2026-04-20 16:50 | 48.68711 | 16.83359 | 15442 ft | 342 kts | 322° |
| 2026-04-20 16:51 | 48.70651 | 16.81332 | 14877 ft | 341 kts | 324° |
| 2026-04-20 16:51 | 48.72795 | 16.79808 | 14303 ft | 344 kts | 339° |
| 2026-04-20 16:51 | 48.75162 | 16.79190 | 13734 ft | 348 kts | 354° |
| 2026-04-20 16:51 | 48.77557 | 16.79298 | 13186 ft | 348 kts | 359° |
| 2026-04-20 16:52 | 48.79935 | 16.79561 | 12628 ft | 345 kts | 0° |
| 2026-04-20 16:52 | 48.82335 | 16.79829 | 12066 ft | 341 kts | 0° |
| 2026-04-20 16:52 | 48.84680 | 16.80072 | 11513 ft | 338 kts | 360° |
| 2026-04-20 16:52 | 48.87013 | 16.80297 | 10969 ft | 334 kts | 360° |
| 2026-04-20 16:53 | 48.89307 | 16.80513 | 10651 ft | 321 kts | 360° |
| 2026-04-20 16:53 | 48.91452 | 16.80714 | 10444 ft | 306 kts | 359° |
| 2026-04-20 16:53 | 48.93512 | 16.80907 | 10261 ft | 292 kts | 359° |
| 2026-04-20 16:53 | 48.95486 | 16.81091 | 10102 ft | 279 kts | 359° |
| 2026-04-20 16:54 | 48.97412 | 16.81266 | 9843 ft | 279 kts | 359° |
| 2026-04-20 16:54 | 48.99361 | 16.81443 | 9460 ft | 277 kts | 359° |
| 2026-04-20 16:54 | 49.01267 | 16.81622 | 9091 ft | 274 kts | 0° |
| 2026-04-20 16:54 | 49.03138 | 16.82326 | 8711 ft | 279 kts | 25° |
| 2026-04-20 16:55 | 49.04570 | 16.84296 | 8341 ft | 285 kts | 54° |
| 2026-04-20 16:55 | 49.05218 | 16.87106 | 7991 ft | 287 kts | 84° |
| 2026-04-20 16:55 | 49.05080 | 16.90126 | 7659 ft | 285 kts | 98° |
| 2026-04-20 16:55 | 49.04754 | 16.93109 | 7321 ft | 282 kts | 99° |
| 2026-04-20 16:56 | 49.04435 | 16.96026 | 6988 ft | 280 kts | 98° |
| 2026-04-20 16:56 | 49.04143 | 16.98929 | 6663 ft | 277 kts | 97° |
| 2026-04-20 16:56 | 49.03874 | 17.01824 | 6332 ft | 275 kts | 97° |
| 2026-04-20 16:56 | 49.03612 | 17.04736 | 6008 ft | 273 kts | 97° |
| 2026-04-20 16:57 | 49.03422 | 17.07578 | 5679 ft | 271 kts | 86° |
| 2026-04-20 16:57 | 49.03931 | 17.10276 | 5343 ft | 263 kts | 55° |
| 2026-04-20 16:57 | 49.05204 | 17.12160 | 5008 ft | 254 kts | 26° |
| 2026-04-20 16:57 | 49.06824 | 17.12920 | 4687 ft | 247 kts | 5° |
| 2026-04-20 16:58 | 49.08524 | 17.13168 | 4351 ft | 244 kts | 356° |
| 2026-04-20 16:58 | 49.10078 | 17.12517 | 4112 ft | 234 kts | 328° |
| 2026-04-20 16:58 | 49.11036 | 17.11195 | 4047 ft | 223 kts | 303° |
| 2026-04-20 16:58 | 49.11567 | 17.09321 | 3986 ft | 213 kts | 286° |
| 2026-04-20 16:59 | 49.11862 | 17.07159 | 3928 ft | 202 kts | 282° |
| 2026-04-20 16:59 | 49.12087 | 17.05115 | 3879 ft | 191 kts | 280° |
| 2026-04-20 16:59 | 49.12277 | 17.03148 | 3838 ft | 180 kts | 279° |
| 2026-04-20 16:59 | 49.12442 | 17.01279 | 3813 ft | 173 kts | 279° |
| 2026-04-20 17:00 | 49.12751 | 16.97608 | 3783 ft | 170 kts | 279° |
| 2026-04-20 17:00 | 49.12889 | 16.95914 | 3873 ft | 147 kts | 279° |
| 2026-04-20 17:00 | 49.13007 | 16.94457 | 3720 ft | 128 kts | 279° |
| 2026-04-20 17:01 | 49.13110 | 16.93204 | 3571 ft | 111 kts | 280° |
| 2026-04-20 17:01 | 49.13205 | 16.92049 | 3438 ft | 106 kts | 280° |
| 2026-04-20 17:01 | 49.13300 | 16.90924 | 3293 ft | 106 kts | 280° |
| 2026-04-20 17:01 | 49.13394 | 16.89793 | 3149 ft | 106 kts | 280° |
| 2026-04-20 17:02 | 49.13488 | 16.88667 | 3005 ft | 106 kts | 280° |
| 2026-04-20 17:02 | 49.13582 | 16.87542 | 2862 ft | 106 kts | 281° |
| 2026-04-20 17:02 | 49.13670 | 16.86492 | 2728 ft | 106 kts | 281° |
| 2026-04-20 17:02 | 49.13766 | 16.85349 | 2583 ft | 106 kts | 281° |
| 2026-04-20 17:03 | 49.13858 | 16.84251 | 2444 ft | 106 kts | 281° |
| 2026-04-20 17:03 | 49.13953 | 16.83129 | 2300 ft | 106 kts | 281° |
| 2026-04-20 17:03 | 49.14047 | 16.82010 | 2163 ft | 107 kts | 282° |
| 2026-04-20 17:03 | 49.14141 | 16.80892 | 2012 ft | 109 kts | 283° |
| 2026-04-20 17:04 | 49.14241 | 16.79722 | 1870 ft | 111 kts | 283° |
| 2026-04-20 17:04 | 49.14339 | 16.78556 | 1723 ft | 111 kts | 283° |
| 2026-04-20 17:04 | 49.14438 | 16.77391 | 1577 ft | 111 kts | 283° |
| 2026-04-20 17:04 | 49.14538 | 16.76219 | 1428 ft | 110 kts | 283° |
| 2026-04-20 17:05 | 49.14636 | 16.75072 | 1285 ft | 110 kts | 283° |
| 2026-04-20 17:05 | 49.14735 | 16.73918 | 1139 ft | 110 kts | 283° |
| 2026-04-20 17:05 | 49.14827 | 16.72770 | 988 ft | 109 kts | 285° |
| 2026-04-20 17:05 | 49.14932 | 16.71609 | 867 ft | 110 kts | 282° |
| 2026-04-20 17:06 | 49.15029 | 16.70466 | 774 ft | 102 kts | 284° |
| 2026-04-20 17:06 | 49.15106 | 16.69679 | 768 ft | 33 kts | 276° |
| 2026-04-20 17:06 | 49.15132 | 16.69386 | 772 ft | 24 kts | 278° |
| 2026-04-20 17:06 | 49.15166 | 16.69229 | 773 ft | 7 kts | 330° |
| 2026-04-20 17:07 | 49.15216 | 16.69228 | 776 ft | 6 kts | 7° |
| 2026-04-20 17:07 | 49.15219 | 16.69229 | 776 ft | 0 kts | 7° |
| 2026-04-20 17:07 | 49.15221 | 16.69229 | 776 ft | 1 kts | 7° |
| 2026-04-20 17:07 | 49.15246 | 16.69234 | 778 ft | 5 kts | 7° |
| 2026-04-20 17:08 | 49.15283 | 16.69241 | 780 ft | 4 kts | 7° |
| 2026-04-20 17:08 | 49.15316 | 16.69242 | 781 ft | 5 kts | 342° |
| 2026-04-20 17:08 | 49.15337 | 16.69185 | 783 ft | 6 kts | 281° |
| 2026-04-20 17:08 | 49.15345 | 16.69110 | 784 ft | 7 kts | 277° |
| 2026-04-20 17:09 | 49.15376 | 16.69067 | 785 ft | 7 kts | 7° |
| 2026-04-20 17:09 | 49.15382 | 16.69068 | 785 ft | 0 kts | 7° |